createdAt,value
2022-08-01T00:00:16.616Z,19.54
2022-08-01T00:01:17.042Z,19.54
2022-08-01T00:02:16.963Z,19.53
2022-08-01T00:03:16.471Z,19.48
2022-08-01T00:04:16.901Z,19.50
2022-08-01T00:05:16.338Z,19.51
2022-08-01T00:06:16.807Z,19.48
2022-08-01T00:07:17.296Z,19.44
2022-08-01T00:08:16.742Z,19.44
2022-08-01T00:09:18.325Z,19.43
2022-08-01T00:10:16.978Z,19.40
2022-08-01T00:11:16.423Z,19.39
2022-08-01T00:12:17.069Z,19.39
2022-08-01T00:13:16.518Z,19.34
2022-08-01T00:14:16.967Z,19.29
2022-08-01T00:15:16.422Z,19.27
2022-08-01T00:16:16.849Z,19.26
2022-08-01T00:17:17.259Z,19.29
2022-08-01T00:18:16.698Z,19.26
2022-08-01T00:19:17.130Z,19.29
2022-08-01T00:20:16.568Z,19.25
2022-08-01T00:21:17.036Z,19.23
2022-08-01T00:22:16.780Z,19.23
2022-08-01T00:23:17.232Z,19.14
2022-08-01T00:24:16.691Z,19.14
2022-08-01T00:25:16.339Z,19.12
2022-08-01T00:26:16.812Z,19.12
2022-08-01T00:27:17.243Z,19.13
2022-08-01T00:28:16.653Z,19.10
2022-08-01T00:30:01.294Z,19.12
2022-08-01T00:30:16.539Z,19.07
2022-08-01T00:31:16.977Z,19.06
2022-08-01T00:32:16.857Z,19.05
2022-08-01T00:33:16.274Z,19.05
2022-08-01T00:34:16.695Z,19.05
2022-08-01T00:35:17.122Z,19.05
2022-08-01T00:36:16.594Z,19.05
2022-08-01T00:37:17.057Z,19.02
2022-08-01T00:38:16.520Z,19.06
2022-08-01T00:39:17.020Z,19.06
2022-08-01T00:40:16.517Z,19.09
2022-08-01T00:41:16.994Z,19.05
2022-08-01T00:42:17.272Z,19.09
2022-08-01T00:43:16.701Z,19.05
2022-08-01T00:44:17.118Z,19.03
2022-08-01T00:45:16.550Z,19.03
2022-08-01T00:46:16.977Z,19.03
2022-08-01T00:47:16.394Z,19.03
2022-08-01T00:48:16.836Z,18.99
2022-08-01T00:49:17.303Z,18.98
2022-08-01T00:50:16.839Z,18.94
2022-08-01T00:51:17.287Z,18.94
2022-08-01T00:52:16.946Z,18.92
2022-08-01T00:53:18.792Z,18.95
2022-08-01T00:54:17.006Z,18.94
2022-08-01T00:55:16.598Z,18.95
2022-08-01T00:56:17.105Z,19.03
2022-08-01T00:57:16.535Z,19.01
2022-08-01T00:58:17.723Z,19.01
2022-08-01T00:59:16.328Z,19.01
2022-08-01T01:00:17.155Z,18.99
2022-08-01T01:01:16.580Z,18.96
2022-08-01T01:02:17.251Z,18.94
2022-08-01T01:03:16.674Z,18.94
2022-08-01T01:04:17.104Z,18.91
2022-08-01T01:05:16.561Z,18.89
2022-08-01T01:06:17.032Z,18.94
2022-08-01T01:07:16.486Z,18.95
2022-08-01T01:08:16.937Z,18.94
2022-08-01T01:09:16.394Z,18.88
2022-08-01T01:10:16.859Z,18.91
2022-08-01T01:11:16.318Z,18.89
2022-08-01T01:12:16.858Z,18.92
2022-08-01T01:13:17.263Z,18.92
2022-08-01T01:14:16.690Z,18.91
2022-08-01T01:15:17.127Z,18.86
2022-08-01T01:16:16.554Z,18.88
2022-08-01T01:17:16.971Z,18.89
2022-08-01T01:18:16.476Z,18.89
2022-08-01T01:19:16.919Z,18.88
2022-08-01T01:20:16.395Z,18.86
2022-08-01T01:21:16.836Z,18.85
2022-08-01T01:22:16.541Z,18.85
2022-08-01T01:23:17.006Z,18.85
2022-08-01T01:24:16.456Z,18.88
2022-08-01T01:25:16.912Z,18.86
2022-08-01T01:26:16.353Z,18.85
2022-08-01T01:27:16.826Z,18.92
2022-08-01T01:28:17.265Z,18.85
2022-08-01T01:29:16.693Z,18.85
2022-08-01T01:30:17.134Z,18.88
2022-08-01T01:31:16.555Z,18.84
2022-08-01T01:32:16.278Z,18.85
2022-08-01T01:33:16.710Z,18.78
2022-08-01T01:34:17.217Z,18.81
2022-08-01T01:35:16.683Z,18.79
2022-08-01T01:36:17.145Z,18.79
2022-08-01T01:37:16.622Z,18.82
2022-08-01T01:38:17.095Z,18.82
2022-08-01T01:39:16.574Z,18.81
2022-08-01T01:40:17.061Z,18.79
2022-08-01T01:41:16.488Z,18.77
2022-08-01T01:42:16.842Z,18.75
2022-08-01T01:43:17.276Z,18.70
2022-08-01T01:44:16.701Z,18.72
2022-08-01T01:45:17.320Z,18.75
2022-08-01T01:46:16.730Z,18.75
2022-08-01T01:47:17.159Z,18.74
2022-08-01T01:48:16.602Z,18.72
2022-08-01T01:49:17.120Z,18.72
2022-08-01T01:50:16.667Z,18.68
2022-08-01T01:51:17.122Z,18.64
2022-08-01T01:52:16.720Z,18.64
2022-08-01T01:53:17.166Z,18.61
2022-08-01T01:54:16.657Z,18.63
2022-08-01T01:55:17.102Z,18.63
2022-08-01T01:56:16.529Z,18.58
2022-08-01T01:57:16.944Z,18.63
2022-08-01T01:58:16.371Z,18.56
2022-08-01T01:59:16.792Z,18.54
2022-08-01T02:00:16.312Z,18.54
2022-08-01T02:01:16.766Z,18.51
2022-08-01T02:02:17.600Z,18.49
2022-08-01T02:03:16.451Z,18.44
2022-08-01T02:04:16.918Z,18.46
2022-08-01T02:05:16.375Z,18.49
2022-08-01T02:06:16.837Z,18.46
2022-08-01T02:07:16.312Z,18.44
2022-08-01T02:08:16.794Z,18.42
2022-08-01T02:09:17.266Z,18.40
2022-08-01T02:10:16.741Z,18.39
2022-08-01T02:11:17.159Z,18.40
2022-08-01T02:12:17.159Z,18.42
2022-08-01T02:13:16.762Z,18.40
2022-08-01T02:14:16.588Z,18.42
2022-08-01T02:15:17.028Z,18.49
2022-08-01T02:16:16.483Z,18.50
2022-08-01T02:17:16.905Z,18.53
2022-08-01T02:18:16.366Z,18.51
2022-08-01T02:19:16.823Z,18.49
2022-08-01T02:20:17.317Z,18.49
2022-08-01T02:21:16.784Z,18.49
2022-08-01T02:22:16.907Z,18.46
2022-08-01T02:23:16.364Z,18.46
2022-08-01T02:24:16.815Z,18.49
2022-08-01T02:25:17.282Z,18.50
2022-08-01T02:26:16.716Z,18.49
2022-08-01T02:27:17.155Z,18.46
2022-08-01T02:28:16.606Z,18.43
2022-08-01T02:29:17.057Z,18.42
2022-08-01T02:30:16.485Z,18.43
2022-08-01T02:31:16.920Z,18.42
2022-08-01T02:32:16.350Z,18.37
2022-08-01T02:33:16.795Z,18.43
2022-08-01T02:34:17.246Z,18.40
2022-08-01T02:35:16.707Z,18.36
2022-08-01T02:36:29.366Z,18.36
2022-08-01T02:37:17.179Z,18.34
2022-08-01T02:38:16.628Z,18.26
2022-08-01T02:39:17.063Z,18.26
2022-08-01T02:40:16.511Z,18.22
2022-08-01T02:41:16.922Z,18.17
2022-08-01T02:42:16.829Z,18.15
2022-08-01T02:43:17.235Z,18.11
2022-08-01T02:44:16.663Z,18.11
2022-08-01T02:45:17.133Z,18.11
2022-08-01T02:46:16.594Z,18.09
2022-08-01T02:47:17.020Z,18.06
2022-08-01T02:48:16.479Z,18.02
2022-08-01T02:49:17.019Z,17.98
2022-08-01T02:50:16.620Z,17.97
2022-08-01T02:51:17.106Z,17.95
2022-08-01T02:52:16.602Z,17.92
2022-08-01T02:53:17.038Z,17.87
2022-08-01T02:54:16.517Z,17.87
2022-08-01T02:55:16.938Z,17.85
2022-08-01T02:56:16.388Z,17.85
2022-08-01T02:57:16.816Z,17.82
2022-08-01T02:58:16.497Z,17.81
2022-08-01T02:59:17.323Z,17.82
2022-08-01T03:00:16.918Z,17.84
2022-08-01T03:01:16.441Z,17.81
2022-08-01T03:02:17.016Z,17.80
2022-08-01T03:03:16.463Z,17.71
2022-08-01T03:04:16.937Z,17.67
2022-08-01T03:05:16.389Z,17.64
2022-08-01T03:06:16.887Z,17.63
2022-08-01T03:07:16.351Z,17.67
2022-08-01T03:08:17.080Z,17.67
2022-08-01T03:09:16.567Z,17.61
2022-08-01T03:10:16.356Z,17.60
2022-08-01T03:11:16.813Z,17.58
2022-08-01T03:12:17.224Z,17.58
2022-08-01T03:13:16.683Z,17.57
2022-08-01T03:14:17.208Z,17.54
2022-08-01T03:15:16.686Z,17.58
2022-08-01T03:16:17.192Z,17.61
2022-08-01T03:17:16.619Z,17.54
2022-08-01T03:18:17.033Z,17.53
2022-08-01T03:19:16.478Z,17.50
2022-08-01T03:20:16.929Z,17.47
2022-08-01T03:21:16.347Z,17.47
2022-08-01T03:22:17.254Z,17.49
2022-08-01T03:23:16.676Z,17.46
2022-08-01T03:24:17.104Z,17.50
2022-08-01T03:25:16.570Z,17.44
2022-08-01T03:26:17.031Z,17.46
2022-08-01T03:27:16.484Z,17.43
2022-08-01T03:28:16.942Z,17.42
2022-08-01T03:29:16.382Z,17.39
2022-08-01T03:30:16.887Z,17.37
2022-08-01T03:31:16.334Z,17.37
2022-08-01T03:32:16.651Z,17.35
2022-08-01T03:33:17.113Z,17.30
2022-08-01T03:34:16.538Z,17.29
2022-08-01T03:35:16.984Z,17.27
2022-08-01T03:36:16.412Z,17.21
2022-08-01T03:37:16.842Z,17.21
2022-08-01T03:38:17.278Z,17.21
2022-08-01T03:39:16.819Z,17.18
2022-08-01T03:40:17.313Z,17.18
2022-08-01T03:41:16.936Z,17.16
2022-08-01T03:42:16.714Z,17.15
2022-08-01T03:43:17.157Z,17.11
2022-08-01T03:44:16.613Z,17.16
2022-08-01T03:45:17.114Z,17.15
2022-08-01T03:46:16.589Z,17.12
2022-08-01T03:47:17.007Z,17.15
2022-08-01T03:48:16.460Z,17.12
2022-08-01T03:49:16.940Z,17.11
2022-08-01T03:50:16.499Z,17.07
2022-08-01T03:51:16.933Z,17.18
2022-08-01T03:52:16.682Z,17.15
2022-08-01T03:53:17.143Z,17.12
2022-08-01T03:54:16.590Z,17.15
2022-08-01T03:55:17.046Z,17.07
2022-08-01T03:56:16.515Z,17.05
2022-08-01T03:57:34.939Z,17.05
2022-08-01T03:58:17.008Z,17.15
2022-08-01T03:59:16.472Z,17.12
2022-08-01T04:00:16.947Z,17.11
2022-08-01T04:01:16.406Z,17.08
2022-08-01T04:02:17.248Z,17.04
2022-08-01T04:03:16.670Z,17.07
2022-08-01T04:04:17.083Z,17.05
2022-08-01T04:05:16.512Z,17.04
2022-08-01T04:06:16.943Z,17.05
2022-08-01T04:07:16.359Z,17.11
2022-08-01T04:08:16.793Z,17.16
2022-08-01T04:09:17.244Z,17.15
2022-08-01T04:10:16.721Z,17.16
2022-08-01T04:11:17.174Z,17.18
2022-08-01T04:12:16.689Z,17.16
2022-08-01T04:13:17.134Z,17.18
2022-08-01T04:14:16.613Z,17.21
2022-08-01T04:15:17.053Z,17.19
2022-08-01T04:16:16.471Z,17.19
2022-08-01T04:17:16.905Z,17.22
2022-08-01T04:18:16.581Z,17.25
2022-08-01T04:19:17.115Z,17.25
2022-08-01T04:20:16.542Z,17.30
2022-08-01T04:21:17.017Z,17.33
2022-08-01T04:22:16.720Z,17.36
2022-08-01T04:23:17.158Z,17.40
2022-08-01T04:24:16.628Z,17.44
2022-08-01T04:25:17.122Z,17.49
2022-08-01T04:26:16.565Z,17.49
2022-08-01T04:27:17.038Z,17.50
2022-08-01T04:28:16.564Z,17.53
2022-08-01T04:29:17.018Z,17.53
2022-08-01T04:30:17.998Z,17.58
2022-08-01T04:31:16.536Z,17.67
2022-08-01T04:32:16.387Z,17.70
2022-08-01T04:33:16.796Z,17.73
2022-08-01T04:34:17.228Z,17.78
2022-08-01T04:35:22.699Z,17.76
2022-08-01T04:36:17.131Z,17.85
2022-08-01T04:37:16.558Z,17.92
2022-08-01T04:38:17.014Z,17.97
2022-08-01T04:39:16.475Z,18.12
2022-08-01T04:40:16.976Z,18.19
2022-08-01T04:41:16.470Z,18.22
2022-08-01T04:42:17.139Z,18.29
2022-08-01T04:43:16.653Z,18.29
2022-08-01T04:44:17.102Z,18.33
2022-08-01T04:45:16.590Z,18.36
2022-08-01T04:46:17.004Z,18.46
2022-08-01T04:47:16.462Z,18.46
2022-08-01T04:48:16.879Z,18.50
2022-08-01T04:49:16.364Z,18.61
2022-08-01T04:50:16.906Z,18.64
2022-08-01T04:51:16.444Z,18.75
2022-08-01T04:52:19.754Z,18.86
2022-08-01T04:53:17.234Z,18.94
2022-08-01T04:54:16.809Z,18.94
2022-08-01T04:55:17.283Z,18.96
2022-08-01T04:56:16.744Z,18.99
2022-08-01T04:57:17.236Z,19.02
2022-08-01T04:58:18.421Z,19.09
2022-08-01T04:59:19.930Z,19.13
2022-08-01T05:00:16.815Z,19.16
2022-08-01T05:01:17.261Z,19.16
2022-08-01T05:02:16.856Z,19.17
2022-08-01T05:03:17.264Z,19.16
2022-08-01T05:04:16.696Z,19.16
2022-08-01T05:05:17.141Z,19.17
2022-08-01T05:06:16.579Z,19.12
2022-08-01T05:07:17.029Z,19.06
2022-08-01T05:08:16.472Z,19.05
2022-08-01T05:09:16.961Z,19.02
2022-08-01T05:10:16.460Z,19.10
2022-08-01T05:11:16.926Z,19.16
2022-08-01T05:12:16.373Z,19.16
2022-08-01T05:13:16.850Z,19.13
2022-08-01T05:14:16.282Z,19.20
2022-08-01T05:15:16.706Z,19.20
2022-08-01T05:16:17.128Z,19.16
2022-08-01T05:17:16.547Z,19.27
2022-08-01T05:18:16.971Z,19.31
2022-08-01T05:19:16.841Z,19.30
2022-08-01T05:20:17.324Z,19.34
2022-08-01T05:21:16.757Z,19.41
2022-08-01T05:22:16.945Z,19.43
2022-08-01T05:23:17.940Z,19.44
2022-08-01T05:24:16.908Z,19.34
2022-08-01T05:25:19.273Z,19.25
2022-08-01T05:26:17.139Z,19.29
2022-08-01T05:27:16.731Z,19.41
2022-08-01T05:28:18.927Z,19.50
2022-08-01T05:29:16.735Z,19.53
2022-08-01T05:30:17.187Z,19.61
2022-08-01T05:31:16.602Z,19.71
2022-08-01T05:32:17.216Z,19.78
2022-08-01T05:33:16.672Z,19.85
2022-08-01T05:34:17.098Z,19.95
2022-08-01T05:35:16.536Z,19.95
2022-08-01T05:36:16.999Z,19.89
2022-08-01T05:37:16.439Z,19.98
2022-08-01T05:38:16.888Z,19.96
2022-08-01T05:39:16.370Z,20.03
2022-08-01T05:40:16.825Z,20.09
2022-08-01T05:41:17.279Z,20.16
2022-08-01T05:42:17.096Z,20.19
2022-08-01T05:43:16.558Z,20.34
2022-08-01T05:44:16.983Z,20.48
2022-08-01T05:45:16.414Z,20.62
2022-08-01T05:46:16.825Z,20.79
2022-08-01T05:47:17.256Z,20.88
2022-08-01T05:48:16.714Z,20.96
2022-08-01T05:49:17.182Z,20.98
2022-08-01T05:50:16.794Z,20.78
2022-08-01T05:51:17.251Z,20.85
2022-08-01T05:52:16.673Z,21.03
2022-08-01T05:53:17.123Z,21.23
2022-08-01T05:54:16.593Z,21.26
2022-08-01T05:55:17.053Z,21.34
2022-08-01T05:56:16.499Z,21.55
2022-08-01T05:57:16.965Z,21.76
2022-08-01T05:58:16.805Z,21.82
2022-08-01T05:59:17.234Z,21.78
2022-08-01T06:00:16.655Z,21.89
2022-08-01T06:01:17.112Z,21.96
2022-08-01T06:02:16.498Z,22.06
2022-08-01T06:03:17.076Z,22.10
2022-08-01T06:04:16.536Z,22.09
2022-08-01T06:05:16.974Z,22.20
2022-08-01T06:06:16.430Z,22.21
2022-08-01T06:07:16.901Z,22.24
2022-08-01T06:08:16.367Z,22.26
2022-08-01T06:09:16.814Z,22.21
2022-08-01T06:10:17.320Z,22.24
2022-08-01T06:11:16.793Z,22.30
2022-08-01T06:12:17.091Z,22.35
2022-08-01T06:13:16.528Z,22.38
2022-08-01T06:14:16.949Z,22.31
2022-08-01T06:15:16.363Z,22.31
2022-08-01T06:16:16.784Z,22.31
2022-08-01T06:17:17.216Z,22.38
2022-08-01T06:18:16.975Z,22.33
2022-08-01T06:19:16.417Z,22.33
2022-08-01T06:20:16.867Z,22.37
2022-08-01T06:21:16.328Z,22.38
2022-08-01T06:22:17.204Z,22.45
2022-08-01T06:23:30.922Z,22.50
2022-08-01T06:24:17.039Z,22.52
2022-08-01T06:25:19.428Z,22.45
2022-08-01T06:26:16.836Z,22.50
2022-08-01T06:27:21.307Z,22.48
2022-08-01T06:28:17.135Z,22.37
2022-08-01T06:29:16.551Z,22.60
2022-08-01T06:30:16.998Z,22.67
2022-08-01T06:31:16.446Z,22.64
2022-08-01T06:32:16.578Z,22.60
2022-08-01T06:33:16.825Z,22.54
2022-08-01T06:34:17.281Z,22.45
2022-08-01T06:35:16.764Z,22.44
2022-08-01T06:36:17.225Z,22.50
2022-08-01T06:37:16.704Z,22.62
2022-08-01T06:38:17.134Z,22.64
2022-08-01T06:39:16.571Z,22.69
2022-08-01T06:40:17.512Z,22.76
2022-08-01T06:41:17.066Z,22.76
2022-08-01T06:42:17.214Z,22.74
2022-08-01T06:43:16.627Z,22.71
2022-08-01T06:44:17.059Z,22.69
2022-08-01T06:45:16.500Z,22.69
2022-08-01T06:46:16.940Z,22.72
2022-08-01T06:47:16.377Z,22.71
2022-08-01T06:48:16.826Z,22.74
2022-08-01T06:49:17.329Z,22.74
2022-08-01T06:50:16.863Z,22.76
2022-08-01T06:51:16.328Z,22.78
2022-08-01T06:52:16.947Z,22.83
2022-08-01T06:53:16.410Z,22.83
2022-08-01T06:54:16.865Z,22.83
2022-08-01T06:55:16.337Z,22.82
2022-08-01T06:56:16.799Z,22.78
2022-08-01T06:57:17.235Z,22.85
2022-08-01T06:58:16.652Z,22.82
2022-08-01T06:59:17.107Z,22.82
2022-08-01T07:00:16.525Z,22.80
2022-08-01T07:01:17.003Z,22.82
2022-08-01T07:02:16.640Z,22.79
2022-08-01T07:03:16.453Z,22.83
2022-08-01T07:04:16.915Z,22.82
2022-08-01T07:05:16.375Z,22.79
2022-08-01T07:06:16.843Z,22.85
2022-08-01T07:07:16.319Z,22.90
2022-08-01T07:08:16.776Z,22.89
2022-08-01T07:09:17.251Z,22.96
2022-08-01T07:10:16.711Z,23.05
2022-08-01T07:11:17.147Z,23.10
2022-08-01T07:12:16.771Z,23.13
2022-08-01T07:13:17.211Z,23.17
2022-08-01T07:14:16.665Z,23.20
2022-08-01T07:15:17.135Z,23.29
2022-08-01T07:16:16.562Z,23.29
2022-08-01T07:17:16.989Z,23.26
2022-08-01T07:18:16.454Z,23.26
2022-08-01T07:19:16.944Z,23.23
2022-08-01T07:20:16.789Z,23.20
2022-08-01T07:21:39.491Z,23.26
2022-08-01T07:22:17.315Z,23.33
2022-08-01T07:23:17.143Z,23.40
2022-08-01T07:24:17.115Z,23.51
2022-08-01T07:25:16.304Z,23.65
2022-08-01T07:26:16.843Z,23.79
2022-08-01T07:27:22.973Z,23.82
2022-08-01T07:28:16.516Z,23.93
2022-08-01T07:29:16.930Z,23.97
2022-08-01T07:30:16.382Z,24.04
2022-08-01T07:31:16.852Z,24.21
2022-08-01T07:32:16.748Z,24.23
2022-08-01T07:33:16.735Z,24.25
2022-08-01T07:34:17.193Z,24.41
2022-08-01T07:35:16.690Z,24.58
2022-08-01T07:36:17.136Z,24.69
2022-08-01T07:37:16.580Z,24.76
2022-08-01T07:38:17.051Z,25.05
2022-08-01T07:39:16.578Z,25.61
2022-08-01T07:40:17.159Z,26.35
2022-08-01T07:41:16.578Z,27.10
2022-08-01T07:42:17.163Z,27.35
2022-08-01T07:43:16.573Z,27.82
2022-08-01T07:44:17.019Z,27.89
2022-08-01T07:45:16.440Z,28.21
2022-08-01T07:46:16.897Z,28.59
2022-08-01T07:47:16.369Z,28.94
2022-08-01T07:48:16.862Z,28.17
2022-08-01T07:49:16.382Z,28.39
2022-08-01T07:50:17.063Z,28.87
2022-08-01T07:51:16.523Z,28.32
2022-08-01T07:52:17.278Z,28.00
2022-08-01T07:53:17.222Z,28.00
2022-08-01T07:54:16.651Z,28.19
2022-08-01T07:55:17.100Z,28.51
2022-08-01T07:56:16.560Z,29.44
2022-08-01T07:57:16.982Z,30.01
2022-08-01T07:58:16.400Z,30.36
2022-08-01T07:59:17.020Z,29.21
2022-08-01T08:00:16.799Z,29.34
2022-08-01T08:01:17.264Z,29.07
2022-08-01T08:02:17.241Z,29.97
2022-08-01T08:03:17.010Z,29.90
2022-08-01T08:04:16.490Z,29.80
2022-08-01T08:05:16.968Z,29.59
2022-08-01T08:06:16.444Z,29.49
2022-08-01T08:07:16.895Z,29.88
2022-08-01T08:08:16.355Z,30.35
2022-08-01T08:09:16.800Z,29.99
2022-08-01T08:10:17.301Z,28.83
2022-08-01T08:11:16.723Z,28.87
2022-08-01T08:12:16.446Z,29.56
2022-08-01T08:13:16.786Z,29.09
2022-08-01T08:14:17.224Z,29.46
2022-08-01T08:15:16.667Z,30.24
2022-08-01T08:16:17.143Z,30.98
2022-08-01T08:17:16.601Z,31.59
2022-08-01T08:18:17.067Z,30.61
2022-08-01T08:19:16.553Z,30.30
2022-08-01T08:20:17.040Z,30.75
2022-08-01T08:21:16.506Z,30.78
2022-08-01T08:22:16.997Z,31.03
2022-08-01T08:23:16.449Z,30.78
2022-08-01T08:24:16.912Z,30.94
2022-08-01T08:25:16.360Z,31.24
2022-08-01T08:26:16.805Z,30.79
2022-08-01T08:27:17.272Z,30.14
2022-08-01T08:28:16.739Z,30.07
2022-08-01T08:29:17.174Z,29.90
2022-08-01T08:30:16.860Z,30.28
2022-08-01T08:31:24.777Z,31.31
2022-08-01T08:32:16.770Z,31.68
2022-08-01T08:33:17.232Z,32.30
2022-08-01T08:34:16.705Z,32.96
2022-08-01T08:35:20.219Z,32.91
2022-08-01T08:36:16.709Z,32.34
2022-08-01T08:37:17.227Z,31.40
2022-08-01T08:38:16.699Z,31.35
2022-08-01T08:39:17.440Z,29.95
2022-08-01T08:40:16.995Z,30.13
2022-08-01T08:41:20.807Z,29.85
2022-08-01T08:42:16.897Z,29.42
2022-08-01T08:43:16.316Z,30.16
2022-08-01T08:44:16.766Z,30.24
2022-08-01T08:45:17.247Z,30.08
2022-08-01T08:46:16.731Z,29.79
2022-08-01T08:47:20.062Z,29.66
2022-08-01T08:48:17.320Z,29.27
2022-08-01T08:49:17.245Z,28.73
2022-08-01T08:50:16.959Z,28.75
2022-08-01T08:51:16.412Z,29.65
2022-08-01T08:52:16.897Z,30.45
2022-08-01T08:53:18.635Z,30.25
2022-08-01T08:54:16.621Z,30.66
2022-08-01T08:55:17.036Z,31.16
2022-08-01T08:56:17.082Z,31.18
2022-08-01T08:57:16.552Z,31.41
2022-08-01T08:58:16.981Z,31.61
2022-08-01T08:59:16.409Z,31.77
2022-08-01T09:00:16.838Z,32.18
2022-08-01T09:01:16.302Z,31.61
2022-08-01T09:02:16.939Z,31.10
2022-08-01T09:03:16.499Z,31.28
2022-08-01T09:04:17.064Z,31.72
2022-08-01T09:05:19.596Z,31.94
2022-08-01T09:06:16.548Z,32.80
2022-08-01T09:07:17.003Z,33.48
2022-08-01T09:08:16.420Z,33.58
2022-08-01T09:09:16.880Z,33.35
2022-08-01T09:10:16.352Z,32.37
2022-08-01T09:11:22.701Z,31.97
2022-08-01T09:12:16.495Z,31.25
2022-08-01T09:13:16.910Z,30.61
2022-08-01T09:14:16.350Z,30.97
2022-08-01T09:15:16.909Z,30.58
2022-08-01T09:16:16.400Z,30.18
2022-08-01T09:17:16.859Z,30.14
2022-08-01T09:18:16.348Z,30.07
2022-08-01T09:19:39.346Z,29.59
2022-08-01T09:20:17.096Z,29.54
2022-08-01T09:21:16.599Z,29.68
2022-08-01T09:22:16.489Z,30.59
2022-08-01T09:23:16.932Z,31.83
2022-08-01T09:24:16.374Z,32.13
2022-08-01T09:25:17.181Z,32.21
2022-08-01T09:26:16.684Z,32.41
2022-08-01T09:27:16.496Z,32.35
2022-08-01T09:28:16.923Z,32.31
2022-08-01T09:29:16.373Z,32.13
2022-08-01T09:30:17.047Z,31.72
2022-08-01T09:31:16.383Z,31.92
2022-08-01T09:32:16.786Z,31.69
2022-08-01T09:33:17.989Z,31.41
2022-08-01T09:34:16.626Z,30.61
2022-08-01T09:35:16.431Z,30.14
2022-08-01T09:36:16.869Z,29.93
2022-08-01T09:37:16.484Z,30.14
2022-08-01T09:38:16.966Z,29.54
2022-08-01T09:39:16.444Z,29.35
2022-08-01T09:40:16.897Z,29.10
2022-08-01T09:41:16.330Z,28.54
2022-08-01T09:42:16.419Z,28.42
2022-08-01T09:43:16.914Z,27.97
2022-08-01T09:44:16.933Z,27.68
2022-08-01T09:45:18.970Z,27.76
2022-08-01T09:46:16.297Z,27.75
2022-08-01T09:47:16.781Z,27.62
2022-08-01T09:48:17.240Z,27.57
2022-08-01T09:49:16.785Z,28.48
2022-08-01T09:50:16.621Z,28.51
2022-08-01T09:51:22.233Z,28.24
2022-08-01T09:52:16.537Z,27.94
2022-08-01T09:53:22.840Z,27.87
2022-08-01T09:54:17.083Z,27.85
2022-08-01T09:55:16.544Z,27.82
2022-08-01T09:56:16.977Z,27.79
2022-08-01T09:57:16.395Z,27.96
2022-08-01T09:58:16.864Z,27.79
2022-08-01T09:59:16.843Z,27.79
2022-08-01T10:00:24.380Z,27.49
2022-08-01T10:01:16.335Z,27.52
2022-08-01T10:02:16.968Z,27.44
2022-08-01T10:03:16.668Z,27.07
2022-08-01T10:04:16.781Z,26.81
2022-08-01T10:05:18.658Z,27.09
2022-08-01T10:06:17.102Z,27.21
2022-08-01T10:07:17.066Z,27.13
2022-08-01T10:08:16.487Z,27.20
2022-08-01T10:09:16.796Z,28.04
2022-08-01T10:10:17.395Z,28.42
2022-08-01T10:11:16.981Z,29.35
2022-08-01T10:12:16.825Z,30.03
2022-08-01T10:13:17.246Z,30.35
2022-08-01T10:14:17.644Z,30.65
2022-08-01T10:15:17.793Z,31.20
2022-08-01T10:16:16.831Z,31.51
2022-08-01T10:17:18.246Z,31.61
2022-08-01T10:18:25.256Z,31.82
2022-08-01T10:19:16.926Z,31.80
2022-08-01T10:20:21.790Z,31.62
2022-08-01T10:21:16.776Z,31.71
2022-08-01T10:22:17.221Z,32.30
2022-08-01T10:23:16.679Z,33.10
2022-08-01T10:24:18.808Z,32.55
2022-08-01T10:25:16.690Z,32.28
2022-08-01T10:26:17.147Z,31.53
2022-08-01T10:27:16.787Z,31.32
2022-08-01T10:28:18.055Z,31.21
2022-08-01T10:29:24.443Z,31.31
2022-08-01T10:30:21.624Z,30.97
2022-08-01T10:31:16.935Z,30.24
2022-08-01T10:32:16.851Z,30.44
2022-08-01T10:33:20.125Z,30.63
2022-08-01T10:34:16.790Z,30.58
2022-08-01T10:35:16.302Z,30.85
2022-08-01T10:36:17.148Z,30.93
2022-08-01T10:37:16.566Z,30.61
2022-08-01T10:38:16.374Z,30.45
2022-08-01T10:39:16.638Z,30.36
2022-08-01T10:40:29.737Z,30.24
2022-08-01T10:41:17.120Z,30.20
2022-08-01T10:42:16.374Z,30.10
2022-08-01T10:43:21.359Z,30.06
2022-08-01T10:44:16.710Z,30.04
2022-08-01T10:45:17.257Z,29.88
2022-08-01T10:46:17.607Z,29.37
2022-08-01T10:47:21.047Z,29.55
2022-08-01T10:48:20.527Z,29.52
2022-08-01T10:49:16.641Z,29.49
2022-08-01T10:50:21.700Z,29.14
2022-08-01T10:51:17.614Z,29.20
2022-08-01T10:52:16.725Z,28.81
2022-08-01T10:53:23.469Z,28.89
2022-08-01T10:54:16.612Z,28.82
2022-08-01T10:55:17.049Z,28.69
2022-08-01T10:56:16.754Z,28.52
2022-08-01T10:57:16.680Z,28.09
2022-08-01T10:58:17.259Z,28.09
2022-08-01T10:59:16.855Z,27.97
2022-08-01T11:00:16.371Z,28.04
2022-08-01T11:01:16.935Z,27.99
2022-08-01T11:02:17.241Z,27.99
2022-08-01T11:03:16.694Z,27.89
2022-08-01T11:04:17.868Z,27.93
2022-08-01T11:05:16.710Z,27.80
2022-08-01T11:06:16.423Z,27.77
2022-08-01T11:07:16.863Z,27.58
2022-08-01T11:08:16.333Z,27.30
2022-08-01T11:09:16.899Z,27.06
2022-08-01T11:10:16.351Z,26.89
2022-08-01T11:11:16.789Z,26.99
2022-08-01T11:12:23.719Z,27.20
2022-08-01T11:13:16.637Z,27.42
2022-08-01T11:14:22.666Z,27.41
2022-08-01T11:15:16.962Z,27.31
2022-08-01T11:16:17.911Z,27.14
2022-08-01T11:17:16.462Z,27.11
2022-08-01T11:18:16.953Z,26.97
2022-08-01T11:19:16.420Z,26.85
2022-08-01T11:20:17.409Z,27.06
2022-08-01T11:21:58.385Z,27.11
2022-08-01T11:22:16.861Z,26.93
2022-08-01T11:23:16.283Z,26.65
2022-08-01T11:24:16.719Z,26.68
2022-08-01T11:25:16.779Z,26.68
2022-08-01T11:26:17.339Z,27.03
2022-08-01T11:27:17.175Z,27.09
2022-08-01T11:28:25.018Z,27.28
2022-08-01T11:29:20.844Z,27.49
2022-08-01T11:30:17.115Z,27.55
2022-08-01T11:31:16.810Z,27.76
2022-08-01T11:32:16.320Z,28.71
2022-08-01T11:33:16.787Z,28.66
2022-08-01T11:34:17.229Z,28.10
2022-08-01T11:35:16.964Z,28.16
2022-08-01T11:36:16.646Z,28.00
2022-08-01T11:37:17.080Z,27.82
2022-08-01T11:38:17.136Z,27.92
2022-08-01T11:39:16.591Z,27.85
2022-08-01T11:40:17.013Z,27.93
2022-08-01T11:41:16.942Z,28.10
2022-08-01T11:42:16.416Z,29.04
2022-08-01T11:43:16.928Z,29.26
2022-08-01T11:44:16.398Z,29.28
2022-08-01T11:45:18.499Z,29.04
2022-08-01T11:46:17.250Z,28.69
2022-08-01T11:47:16.733Z,28.79
2022-08-01T11:48:16.737Z,28.92
2022-08-01T11:49:16.373Z,29.09
2022-08-01T11:50:16.796Z,29.27
2022-08-01T11:51:21.611Z,29.56
2022-08-01T11:52:17.097Z,29.58
2022-08-01T11:53:16.537Z,29.49
2022-08-01T11:54:16.492Z,29.27
2022-08-01T11:55:17.181Z,29.26
2022-08-01T11:56:17.626Z,28.09
2022-08-01T11:57:17.106Z,27.76
2022-08-01T11:58:21.934Z,27.80
2022-08-01T11:59:16.919Z,27.97
2022-08-01T12:00:17.479Z,27.89
2022-08-01T12:01:17.011Z,27.92
2022-08-01T12:02:16.702Z,28.11
2022-08-01T12:03:18.034Z,27.97
2022-08-01T12:04:16.945Z,28.11
2022-08-01T12:05:16.505Z,28.24
2022-08-01T12:06:17.171Z,28.07
2022-08-01T12:07:16.595Z,27.92
2022-08-01T12:08:17.030Z,27.80
2022-08-01T12:09:16.488Z,27.86
2022-08-01T12:10:16.969Z,27.96
2022-08-01T12:11:16.488Z,28.00
2022-08-01T12:12:17.192Z,28.20
2022-08-01T12:13:16.680Z,27.83
2022-08-01T12:14:17.168Z,27.83
2022-08-01T12:15:16.634Z,27.77
2022-08-01T12:16:17.099Z,28.10
2022-08-01T12:17:16.587Z,28.04
2022-08-01T12:18:17.028Z,27.82
2022-08-01T12:19:16.443Z,27.55
2022-08-01T12:20:16.863Z,27.65
2022-08-01T12:21:16.295Z,27.48
2022-08-01T12:22:16.659Z,27.75
2022-08-01T12:23:17.073Z,27.80
2022-08-01T12:24:16.497Z,27.79
2022-08-01T12:25:16.935Z,27.72
2022-08-01T12:26:28.131Z,27.71
2022-08-01T12:27:16.730Z,27.73
2022-08-01T12:28:17.198Z,27.48
2022-08-01T12:29:16.655Z,27.55
2022-08-01T12:30:17.181Z,27.79
2022-08-01T12:31:16.672Z,27.62
2022-08-01T12:32:16.583Z,27.54
2022-08-01T12:33:16.961Z,27.54
2022-08-01T12:34:16.431Z,27.31
2022-08-01T12:35:18.507Z,27.14
2022-08-01T12:36:17.052Z,27.06
2022-08-01T12:37:17.598Z,26.95
2022-08-01T12:38:17.091Z,27.00
2022-08-01T12:39:16.545Z,27.07
2022-08-01T12:40:16.967Z,27.24
2022-08-01T12:41:16.422Z,27.24
2022-08-01T12:42:16.968Z,27.18
2022-08-01T12:43:26.928Z,26.96
2022-08-01T12:44:16.824Z,26.96
2022-08-01T12:45:17.319Z,26.96
2022-08-01T12:46:16.781Z,26.97
2022-08-01T12:47:17.226Z,27.04
2022-08-01T12:48:16.706Z,27.09
2022-08-01T12:49:17.242Z,26.96
2022-08-01T12:50:16.790Z,27.00
2022-08-01T12:51:17.206Z,26.90
2022-08-01T12:52:17.045Z,26.59